sensor_id;sensor_type;location;lat;lon;timestamp;temperature;humidity
56729;DHT22;42612;52.232;7.560;2023-03-11T00:00:20;5.40;64.80
56729;DHT22;42612;52.232;7.560;2023-03-11T00:02:48;5.40;64.70
56729;DHT22;42612;52.232;7.560;2023-03-11T00:05:18;5.40;64.70
56729;DHT22;42612;52.232;7.560;2023-03-11T00:07:45;5.40;64.70
56729;DHT22;42612;52.232;7.560;2023-03-11T00:10:20;5.40;64.60
56729;DHT22;42612;52.232;7.560;2023-03-11T00:12:49;5.40;64.70
56729;DHT22;42612;52.232;7.560;2023-03-11T00:15:14;5.40;64.70
56729;DHT22;42612;52.232;7.560;2023-03-11T00:17:40;5.40;64.50
56729;DHT22;42612;52.232;7.560;2023-03-11T00:20:10;5.30;64.30
56729;DHT22;42612;52.232;7.560;2023-03-11T00:22:40;5.30;64.30
56729;DHT22;42612;52.232;7.560;2023-03-11T00:25:06;5.30;64.50
56729;DHT22;42612;52.232;7.560;2023-03-11T00:27:31;5.30;64.60
56729;DHT22;42612;52.232;7.560;2023-03-11T00:29:57;5.30;64.60
56729;DHT22;42612;52.232;7.560;2023-03-11T00:32:23;5.30;65.30
56729;DHT22;42612;52.232;7.560;2023-03-11T00:34:48;5.30;64.60
56729;DHT22;42612;52.232;7.560;2023-03-11T00:37:14;5.30;64.60
56729;DHT22;42612;52.232;7.560;2023-03-11T00:39:40;5.30;65.20
56729;DHT22;42612;52.232;7.560;2023-03-11T00:42:05;5.30;64.40
56729;DHT22;42612;52.232;7.560;2023-03-11T00:44:32;5.50;64.40
56729;DHT22;42612;52.232;7.560;2023-03-11T00:46:57;5.40;64.70
56729;DHT22;42612;52.232;7.560;2023-03-11T00:49:23;5.40;64.60
56729;DHT22;42612;52.232;7.560;2023-03-11T00:51:49;5.40;64.50
56729;DHT22;42612;52.232;7.560;2023-03-11T00:54:14;5.40;64.50
56729;DHT22;42612;52.232;7.560;2023-03-11T00:56:40;5.50;64.70
56729;DHT22;42612;52.232;7.560;2023-03-11T00:59:06;5.50;64.90
56729;DHT22;42612;52.232;7.560;2023-03-11T01:01:32;5.50;64.70
56729;DHT22;42612;52.232;7.560;2023-03-11T01:03:57;5.50;64.60
56729;DHT22;42612;52.232;7.560;2023-03-11T01:06:23;5.50;64.20
56729;DHT22;42612;52.232;7.560;2023-03-11T01:08:49;5.50;64.00
56729;DHT22;42612;52.232;7.560;2023-03-11T01:11:14;5.50;63.90
56729;DHT22;42612;52.232;7.560;2023-03-11T01:13:40;5.50;63.80
56729;DHT22;42612;52.232;7.560;2023-03-11T01:16:06;5.40;64.10
56729;DHT22;42612;52.232;7.560;2023-03-11T01:18:33;5.40;63.90
56729;DHT22;42612;52.232;7.560;2023-03-11T01:20:59;5.40;64.00
56729;DHT22;42612;52.232;7.560;2023-03-11T01:23:25;5.40;64.20
56729;DHT22;42612;52.232;7.560;2023-03-11T01:25:50;5.40;64.70
56729;DHT22;42612;52.232;7.560;2023-03-11T01:28:16;5.40;64.50
56729;DHT22;42612;52.232;7.560;2023-03-11T01:30:43;5.40;64.20
56729;DHT22;42612;52.232;7.560;2023-03-11T01:33:14;5.40;64.00
56729;DHT22;42612;52.232;7.560;2023-03-11T01:35:42;5.40;64.30
56729;DHT22;42612;52.232;7.560;2023-03-11T01:38:09;5.40;64.30
56729;DHT22;42612;52.232;7.560;2023-03-11T01:40:47;5.40;63.90
56729;DHT22;42612;52.232;7.560;2023-03-11T01:46:06;5.40;63.70
56729;DHT22;42612;52.232;7.560;2023-03-11T01:48:34;5.40;63.80
56729;DHT22;42612;52.232;7.560;2023-03-11T01:51:03;5.30;63.70
56729;DHT22;42612;52.232;7.560;2023-03-11T01:53:30;5.30;63.70
56729;DHT22;42612;52.232;7.560;2023-03-11T01:55:56;5.30;64.00
56729;DHT22;42612;52.232;7.560;2023-03-11T01:58:25;5.20;64.00
56729;DHT22;42612;52.232;7.560;2023-03-11T02:00:54;5.30;64.20
56729;DHT22;42612;52.232;7.560;2023-03-11T02:03:25;5.30;64.20
56729;DHT22;42612;52.232;7.560;2023-03-11T02:05:55;5.30;64.40
56729;DHT22;42612;52.232;7.560;2023-03-11T02:08:21;5.30;64.20
56729;DHT22;42612;52.232;7.560;2023-03-11T02:10:48;5.30;64.00
56729;DHT22;42612;52.232;7.560;2023-03-11T02:13:16;5.30;64.00
56729;DHT22;42612;52.232;7.560;2023-03-11T02:15:43;5.30;63.80
56729;DHT22;42612;52.232;7.560;2023-03-11T02:18:12;5.20;63.90
56729;DHT22;42612;52.232;7.560;2023-03-11T02:21:07;5.20;63.90
56729;DHT22;42612;52.232;7.560;2023-03-11T02:24:16;5.20;64.20
56729;DHT22;42612;52.232;7.560;2023-03-11T02:27:00;5.20;64.20
56729;DHT22;42612;52.232;7.560;2023-03-11T02:29:28;5.20;64.10
56729;DHT22;42612;52.232;7.560;2023-03-11T02:31:55;5.30;64.20
56729;DHT22;42612;52.232;7.560;2023-03-11T02:34:25;5.30;64.20
56729;DHT22;42612;52.232;7.560;2023-03-11T02:36:53;5.30;63.90
56729;DHT22;42612;52.232;7.560;2023-03-11T02:39:39;5.30;63.90
56729;DHT22;42612;52.232;7.560;2023-03-11T02:42:29;5.30;64.00
56729;DHT22;42612;52.232;7.560;2023-03-11T02:45:09;5.30;64.00
56729;DHT22;42612;52.232;7.560;2023-03-11T02:47:38;5.30;64.00
56729;DHT22;42612;52.232;7.560;2023-03-11T02:50:04;5.30;64.60
56729;DHT22;42612;52.232;7.560;2023-03-11T02:52:33;5.30;64.10
56729;DHT22;42612;52.232;7.560;2023-03-11T02:54:59;5.30;63.90
56729;DHT22;42612;52.232;7.560;2023-03-11T02:57:24;5.30;63.90
56729;DHT22;42612;52.232;7.560;2023-03-11T02:59:50;5.30;63.50
56729;DHT22;42612;52.232;7.560;2023-03-11T03:02:16;5.30;63.40
56729;DHT22;42612;52.232;7.560;2023-03-11T03:04:42;5.20;63.30
56729;DHT22;42612;52.232;7.560;2023-03-11T03:07:08;5.20;63.60
56729;DHT22;42612;52.232;7.560;2023-03-11T03:09:34;5.30;64.00
56729;DHT22;42612;52.232;7.560;2023-03-11T03:12:01;5.20;63.60
56729;DHT22;42612;52.232;7.560;2023-03-11T03:14:27;5.20;63.40
56729;DHT22;42612;52.232;7.560;2023-03-11T03:16:53;5.20;63.20
56729;DHT22;42612;52.232;7.560;2023-03-11T03:19:18;5.20;63.10
56729;DHT22;42612;52.232;7.560;2023-03-11T03:21:44;5.10;63.20
56729;DHT22;42612;52.232;7.560;2023-03-11T03:24:10;5.10;63.20
56729;DHT22;42612;52.232;7.560;2023-03-11T03:26:36;5.10;63.20
56729;DHT22;42612;52.232;7.560;2023-03-11T03:29:03;5.00;63.20
56729;DHT22;42612;52.232;7.560;2023-03-11T03:31:29;5.00;63.30
56729;DHT22;42612;52.232;7.560;2023-03-11T03:33:55;5.00;63.40
56729;DHT22;42612;52.232;7.560;2023-03-11T03:36:21;4.90;63.30
56729;DHT22;42612;52.232;7.560;2023-03-11T03:38:47;4.90;63.40
56729;DHT22;42612;52.232;7.560;2023-03-11T03:41:13;4.90;63.40
56729;DHT22;42612;52.232;7.560;2023-03-11T03:43:42;4.90;63.50
56729;DHT22;42612;52.232;7.560;2023-03-11T03:46:08;4.90;63.50
56729;DHT22;42612;52.232;7.560;2023-03-11T03:48:33;5.00;63.60
56729;DHT22;42612;52.232;7.560;2023-03-11T03:51:04;5.00;63.70
56729;DHT22;42612;52.232;7.560;2023-03-11T03:53:33;5.00;63.70
56729;DHT22;42612;52.232;7.560;2023-03-11T03:56:05;5.00;63.50
56729;DHT22;42612;52.232;7.560;2023-03-11T03:58:32;5.00;63.30
56729;DHT22;42612;52.232;7.560;2023-03-11T04:00:58;5.10;63.40
56729;DHT22;42612;52.232;7.560;2023-03-11T04:03:25;5.10;63.40
56729;DHT22;42612;52.232;7.560;2023-03-11T04:05:51;5.10;63.10
56729;DHT22;42612;52.232;7.560;2023-03-11T04:08:17;5.10;63.10
56729;DHT22;42612;52.232;7.560;2023-03-11T04:10:43;5.10;63.00
56729;DHT22;42612;52.232;7.560;2023-03-11T04:13:09;5.10;63.00
56729;DHT22;42612;52.232;7.560;2023-03-11T04:15:37;5.10;63.00
56729;DHT22;42612;52.232;7.560;2023-03-11T04:18:03;5.00;62.90
56729;DHT22;42612;52.232;7.560;2023-03-11T04:20:29;5.10;62.90
56729;DHT22;42612;52.232;7.560;2023-03-11T04:22:55;5.00;62.70
56729;DHT22;42612;52.232;7.560;2023-03-11T04:25:21;5.00;62.70
56729;DHT22;42612;52.232;7.560;2023-03-11T04:27:46;5.00;62.70
56729;DHT22;42612;52.232;7.560;2023-03-11T04:30:14;5.00;62.70
56729;DHT22;42612;52.232;7.560;2023-03-11T04:32:40;5.00;62.60
56729;DHT22;42612;52.232;7.560;2023-03-11T04:35:07;5.00;62.70
56729;DHT22;42612;52.232;7.560;2023-03-11T04:37:33;5.00;62.80
56729;DHT22;42612;52.232;7.560;2023-03-11T04:39:59;4.90;62.70
56729;DHT22;42612;52.232;7.560;2023-03-11T04:42:25;5.00;62.80
56729;DHT22;42612;52.232;7.560;2023-03-11T04:44:51;5.00;62.60
56729;DHT22;42612;52.232;7.560;2023-03-11T04:47:17;4.90;62.40
56729;DHT22;42612;52.232;7.560;2023-03-11T04:49:43;5.00;62.40
56729;DHT22;42612;52.232;7.560;2023-03-11T04:52:09;4.90;62.20
56729;DHT22;42612;52.232;7.560;2023-03-11T04:54:34;4.90;62.10
56729;DHT22;42612;52.232;7.560;2023-03-11T04:57:00;4.90;62.20
56729;DHT22;42612;52.232;7.560;2023-03-11T04:59:26;4.80;62.20
56729;DHT22;42612;52.232;7.560;2023-03-11T05:01:52;4.80;62.10
56729;DHT22;42612;52.232;7.560;2023-03-11T05:04:17;4.80;62.20
56729;DHT22;42612;52.232;7.560;2023-03-11T05:06:43;4.80;62.30
56729;DHT22;42612;52.232;7.560;2023-03-11T05:09:09;4.80;62.20
56729;DHT22;42612;52.232;7.560;2023-03-11T05:11:34;4.80;62.20
56729;DHT22;42612;52.232;7.560;2023-03-11T05:14:00;4.80;62.70
56729;DHT22;42612;52.232;7.560;2023-03-11T05:16:26;4.80;62.20
56729;DHT22;42612;52.232;7.560;2023-03-11T05:18:52;4.80;62.30
56729;DHT22;42612;52.232;7.560;2023-03-11T05:21:17;4.80;62.10
56729;DHT22;42612;52.232;7.560;2023-03-11T05:23:43;4.80;62.00
56729;DHT22;42612;52.232;7.560;2023-03-11T05:26:09;4.80;62.00
56729;DHT22;42612;52.232;7.560;2023-03-11T05:28:35;4.80;62.00
56729;DHT22;42612;52.232;7.560;2023-03-11T05:31:01;4.80;62.10
56729;DHT22;42612;52.232;7.560;2023-03-11T05:33:27;4.80;62.10
56729;DHT22;42612;52.232;7.560;2023-03-11T05:36:09;4.80;62.00
56729;DHT22;42612;52.232;7.560;2023-03-11T05:38:35;4.80;62.10
56729;DHT22;42612;52.232;7.560;2023-03-11T05:41:01;4.80;62.10
56729;DHT22;42612;52.232;7.560;2023-03-11T05:43:27;4.80;62.00
56729;DHT22;42612;52.232;7.560;2023-03-11T05:45:53;4.80;61.80
56729;DHT22;42612;52.232;7.560;2023-03-11T05:48:18;4.80;61.60
56729;DHT22;42612;52.232;7.560;2023-03-11T05:50:44;4.80;61.50
56729;DHT22;42612;52.232;7.560;2023-03-11T05:53:10;4.80;61.50
56729;DHT22;42612;52.232;7.560;2023-03-11T05:55:35;4.80;61.50
56729;DHT22;42612;52.232;7.560;2023-03-11T05:58:01;4.70;61.40
56729;DHT22;42612;52.232;7.560;2023-03-11T06:00:27;4.70;61.30
56729;DHT22;42612;52.232;7.560;2023-03-11T06:02:54;4.70;61.10
56729;DHT22;42612;52.232;7.560;2023-03-11T06:05:20;4.60;61.10
56729;DHT22;42612;52.232;7.560;2023-03-11T06:07:45;4.60;61.10
56729;DHT22;42612;52.232;7.560;2023-03-11T06:10:11;4.50;61.40
56729;DHT22;42612;52.232;7.560;2023-03-11T06:12:37;4.50;61.30
56729;DHT22;42612;52.232;7.560;2023-03-11T06:15:05;4.40;61.20
56729;DHT22;42612;52.232;7.560;2023-03-11T06:17:31;4.40;61.20
56729;DHT22;42612;52.232;7.560;2023-03-11T06:19:57;4.40;61.20
56729;DHT22;42612;52.232;7.560;2023-03-11T06:22:23;4.30;61.10
56729;DHT22;42612;52.232;7.560;2023-03-11T06:24:49;4.30;61.80
56729;DHT22;42612;52.232;7.560;2023-03-11T06:27:14;4.30;61.30
56729;DHT22;42612;52.232;7.560;2023-03-11T06:29:40;4.20;61.50
56729;DHT22;42612;52.232;7.560;2023-03-11T06:32:06;4.20;61.80
56729;DHT22;42612;52.232;7.560;2023-03-11T06:34:32;4.20;61.80
56729;DHT22;42612;52.232;7.560;2023-03-11T06:36:57;4.20;61.70
56729;DHT22;42612;52.232;7.560;2023-03-11T06:39:24;4.20;61.80
56729;DHT22;42612;52.232;7.560;2023-03-11T06:41:50;4.20;61.70
56729;DHT22;42612;52.232;7.560;2023-03-11T06:44:16;4.20;61.50
56729;DHT22;42612;52.232;7.560;2023-03-11T06:46:41;4.10;61.40
56729;DHT22;42612;52.232;7.560;2023-03-11T06:49:07;4.10;61.50
56729;DHT22;42612;52.232;7.560;2023-03-11T06:51:33;4.10;61.70
56729;DHT22;42612;52.232;7.560;2023-03-11T06:53:59;4.10;61.50
56729;DHT22;42612;52.232;7.560;2023-03-11T06:56:24;4.10;61.60
56729;DHT22;42612;52.232;7.560;2023-03-11T06:58:50;4.10;61.60
56729;DHT22;42612;52.232;7.560;2023-03-11T07:01:20;4.10;61.60
56729;DHT22;42612;52.232;7.560;2023-03-11T07:03:47;4.10;61.70
56729;DHT22;42612;52.232;7.560;2023-03-11T07:06:19;4.00;61.70
56729;DHT22;42612;52.232;7.560;2023-03-11T07:08:47;4.00;61.60
56729;DHT22;42612;52.232;7.560;2023-03-11T07:11:16;4.10;61.80
56729;DHT22;42612;52.232;7.560;2023-03-11T07:13:43;4.00;61.80
56729;DHT22;42612;52.232;7.560;2023-03-11T07:16:17;4.10;61.80
56729;DHT22;42612;52.232;7.560;2023-03-11T07:18:46;4.00;61.70
56729;DHT22;42612;52.232;7.560;2023-03-11T07:21:15;4.10;61.80
56729;DHT22;42612;52.232;7.560;2023-03-11T07:23:42;4.00;61.70
56729;DHT22;42612;52.232;7.560;2023-03-11T07:26:10;4.10;61.80
56729;DHT22;42612;52.232;7.560;2023-03-11T07:28:36;4.10;61.80
56729;DHT22;42612;52.232;7.560;2023-03-11T07:31:11;4.10;61.80
56729;DHT22;42612;52.232;7.560;2023-03-11T07:33:38;4.10;61.80
56729;DHT22;42612;52.232;7.560;2023-03-11T07:36:09;4.10;61.90
56729;DHT22;42612;52.232;7.560;2023-03-11T07:38:36;4.10;62.00
56729;DHT22;42612;52.232;7.560;2023-03-11T07:41:03;4.10;62.20
56729;DHT22;42612;52.232;7.560;2023-03-11T07:43:29;4.10;62.20
56729;DHT22;42612;52.232;7.560;2023-03-11T07:46:13;4.20;62.30
56729;DHT22;42612;52.232;7.560;2023-03-11T07:48:41;4.20;62.20
56729;DHT22;42612;52.232;7.560;2023-03-11T07:51:13;4.20;62.10
56729;DHT22;42612;52.232;7.560;2023-03-11T07:53:43;4.30;62.10
56729;DHT22;42612;52.232;7.560;2023-03-11T07:56:11;4.30;62.10
56729;DHT22;42612;52.232;7.560;2023-03-11T07:58:38;4.30;62.20
56729;DHT22;42612;52.232;7.560;2023-03-11T08:01:09;4.40;62.30
56729;DHT22;42612;52.232;7.560;2023-03-11T08:03:37;4.40;62.10
56729;DHT22;42612;52.232;7.560;2023-03-11T08:06:14;4.50;62.10
56729;DHT22;42612;52.232;7.560;2023-03-11T08:08:41;4.50;62.00
56729;DHT22;42612;52.232;7.560;2023-03-11T08:11:08;4.50;61.90
56729;DHT22;42612;52.232;7.560;2023-03-11T08:13:34;4.60;61.90
56729;DHT22;42612;52.232;7.560;2023-03-11T08:16:05;4.60;61.90
56729;DHT22;42612;52.232;7.560;2023-03-11T08:18:31;4.60;62.00
56729;DHT22;42612;52.232;7.560;2023-03-11T08:20:58;4.70;62.10
56729;DHT22;42612;52.232;7.560;2023-03-11T08:23:25;4.70;62.20
56729;DHT22;42612;52.232;7.560;2023-03-11T08:25:51;4.80;62.30
56729;DHT22;42612;52.232;7.560;2023-03-11T08:28:16;4.80;62.30
56729;DHT22;42612;52.232;7.560;2023-03-11T08:30:42;4.80;62.20
56729;DHT22;42612;52.232;7.560;2023-03-11T08:33:08;4.90;62.10
56729;DHT22;42612;52.232;7.560;2023-03-11T08:35:33;4.90;62.10
56729;DHT22;42612;52.232;7.560;2023-03-11T08:37:59;5.00;62.20
56729;DHT22;42612;52.232;7.560;2023-03-11T08:40:25;5.00;62.20
56729;DHT22;42612;52.232;7.560;2023-03-11T08:42:50;5.10;62.00
56729;DHT22;42612;52.232;7.560;2023-03-11T08:45:16;5.10;61.80
56729;DHT22;42612;52.232;7.560;2023-03-11T08:47:42;5.10;61.80
56729;DHT22;42612;52.232;7.560;2023-03-11T08:50:12;5.20;61.70
56729;DHT22;42612;52.232;7.560;2023-03-11T08:52:39;5.20;61.50
56729;DHT22;42612;52.232;7.560;2023-03-11T08:55:06;5.20;61.50
56729;DHT22;42612;52.232;7.560;2023-03-11T08:57:35;5.30;61.40
56729;DHT22;42612;52.232;7.560;2023-03-11T09:00:03;5.30;61.60
56729;DHT22;42612;52.232;7.560;2023-03-11T09:02:31;5.40;61.80
56729;DHT22;42612;52.232;7.560;2023-03-11T09:04:57;5.50;62.00
56729;DHT22;42612;52.232;7.560;2023-03-11T09:07:22;5.50;61.80
56729;DHT22;42612;52.232;7.560;2023-03-11T09:09:48;5.60;61.90
56729;DHT22;42612;52.232;7.560;2023-03-11T09:12:14;5.70;62.10
56729;DHT22;42612;52.232;7.560;2023-03-11T09:14:43;5.80;61.90
56729;DHT22;42612;52.232;7.560;2023-03-11T09:17:09;5.90;61.60
56729;DHT22;42612;52.232;7.560;2023-03-11T09:19:37;6.00;61.70
56729;DHT22;42612;52.232;7.560;2023-03-11T09:22:03;6.00;61.80
56729;DHT22;42612;52.232;7.560;2023-03-11T09:24:32;6.10;61.80
56729;DHT22;42612;52.232;7.560;2023-03-11T09:26:59;6.20;61.60
56729;DHT22;42612;52.232;7.560;2023-03-11T09:29:25;6.30;61.30
56729;DHT22;42612;52.232;7.560;2023-03-11T09:31:51;6.30;60.80
56729;DHT22;42612;52.232;7.560;2023-03-11T09:34:17;6.40;60.60
56729;DHT22;42612;52.232;7.560;2023-03-11T09:36:43;6.40;60.30
56729;DHT22;42612;52.232;7.560;2023-03-11T09:39:09;6.50;60.40
56729;DHT22;42612;52.232;7.560;2023-03-11T09:53:01;6.80;60.40
56729;DHT22;42612;52.232;7.560;2023-03-11T09:55:52;6.80;60.00
56729;DHT22;42612;52.232;7.560;2023-03-11T09:58:38;6.90;60.90
56729;DHT22;42612;52.232;7.560;2023-03-11T10:01:25;7.00;60.20
56729;DHT22;42612;52.232;7.560;2023-03-11T10:03:55;7.10;60.30
56729;DHT22;42612;52.232;7.560;2023-03-11T10:06:28;7.10;60.30
56729;DHT22;42612;52.232;7.560;2023-03-11T10:15:09;7.40;59.90
56729;DHT22;42612;52.232;7.560;2023-03-11T10:18:23;7.50;59.40
56729;DHT22;42612;52.232;7.560;2023-03-11T10:24:18;7.60;59.60
56729;DHT22;42612;52.232;7.560;2023-03-11T10:26:54;7.60;59.40
56729;DHT22;42612;52.232;7.560;2023-03-11T10:29:42;7.70;59.40
56729;DHT22;42612;52.232;7.560;2023-03-11T10:32:25;7.70;58.70
56729;DHT22;42612;52.232;7.560;2023-03-11T10:35:22;7.80;59.00
56729;DHT22;42612;52.232;7.560;2023-03-11T10:37:57;7.80;59.00
56729;DHT22;42612;52.232;7.560;2023-03-11T10:40:29;7.90;58.70
56729;DHT22;42612;52.232;7.560;2023-03-11T10:43:08;8.00;58.90
56729;DHT22;42612;52.232;7.560;2023-03-11T10:45:41;8.00;58.60
56729;DHT22;42612;52.232;7.560;2023-03-11T10:48:14;8.10;58.80
56729;DHT22;42612;52.232;7.560;2023-03-11T10:51:01;8.10;58.60
56729;DHT22;42612;52.232;7.560;2023-03-11T10:53:51;8.20;57.50
56729;DHT22;42612;52.232;7.560;2023-03-11T10:56:38;8.30;58.50
56729;DHT22;42612;52.232;7.560;2023-03-11T11:02:18;8.50;57.90
56729;DHT22;42612;52.232;7.560;2023-03-11T11:04:45;8.60;57.90
56729;DHT22;42612;52.232;7.560;2023-03-11T11:07:31;8.60;58.80
56729;DHT22;42612;52.232;7.560;2023-03-11T11:12:50;8.80;56.50
56729;DHT22;42612;52.232;7.560;2023-03-11T11:15:34;8.80;57.60
56729;DHT22;42612;52.232;7.560;2023-03-11T11:18:22;8.90;56.20
56729;DHT22;42612;52.232;7.560;2023-03-11T11:21:03;8.90;56.50
56729;DHT22;42612;52.232;7.560;2023-03-11T11:27:14;9.10;55.80
56729;DHT22;42612;52.232;7.560;2023-03-11T11:29:42;9.10;54.70
56729;DHT22;42612;52.232;7.560;2023-03-11T11:32:16;9.10;56.60
56729;DHT22;42612;52.232;7.560;2023-03-11T11:34:59;9.10;56.00
56729;DHT22;42612;52.232;7.560;2023-03-11T11:37:30;9.20;55.10
56729;DHT22;42612;52.232;7.560;2023-03-11T11:42:47;9.30;55.50
56729;DHT22;42612;52.232;7.560;2023-03-11T11:45:30;9.30;55.50
56729;DHT22;42612;52.232;7.560;2023-03-11T11:48:05;9.40;55.70
56729;DHT22;42612;52.232;7.560;2023-03-11T11:50:42;9.50;55.40
56729;DHT22;42612;52.232;7.560;2023-03-11T11:53:12;9.60;55.80
56729;DHT22;42612;52.232;7.560;2023-03-11T11:55:47;9.70;56.10
56729;DHT22;42612;52.232;7.560;2023-03-11T11:58:14;9.80;55.10
56729;DHT22;42612;52.232;7.560;2023-03-11T12:04:19;9.90;53.30
56729;DHT22;42612;52.232;7.560;2023-03-11T12:10:17;10.00;52.90
56729;DHT22;42612;52.232;7.560;2023-03-11T12:27:48;9.80;53.00
56729;DHT22;42612;52.232;7.560;2023-03-11T12:30:44;9.80;52.60
56729;DHT22;42612;52.232;7.560;2023-03-11T12:33:29;9.80;53.60
56729;DHT22;42612;52.232;7.560;2023-03-11T12:35:59;9.80;54.40
56729;DHT22;42612;52.232;7.560;2023-03-11T12:38:32;9.80;54.40
56729;DHT22;42612;52.232;7.560;2023-03-11T12:41:12;9.90;53.90
56729;DHT22;42612;52.232;7.560;2023-03-11T12:46:17;10.00;54.30
56729;DHT22;42612;52.232;7.560;2023-03-11T12:49:10;10.10;54.30
56729;DHT22;42612;52.232;7.560;2023-03-11T12:51:39;10.20;52.70
56729;DHT22;42612;52.232;7.560;2023-03-11T12:54:29;10.20;54.10
56729;DHT22;42612;52.232;7.560;2023-03-11T13:08:54;10.50;51.80
56729;DHT22;42612;52.232;7.560;2023-03-11T13:11:37;10.50;52.00
56729;DHT22;42612;52.232;7.560;2023-03-11T13:14:30;10.60;52.10
56729;DHT22;42612;52.232;7.560;2023-03-11T13:17:25;10.70;52.10
56729;DHT22;42612;52.232;7.560;2023-03-11T13:19:54;10.80;52.00
56729;DHT22;42612;52.232;7.560;2023-03-11T13:22:40;10.80;53.10
56729;DHT22;42612;52.232;7.560;2023-03-11T13:25:28;10.90;51.20
56729;DHT22;42612;52.232;7.560;2023-03-11T13:34:49;11.00;50.40
56729;DHT22;42612;52.232;7.560;2023-03-11T13:40:44;10.90;49.90
56729;DHT22;42612;52.232;7.560;2023-03-11T13:43:20;10.90;51.60
56729;DHT22;42612;52.232;7.560;2023-03-11T13:48:40;10.80;51.40
56729;DHT22;42612;52.232;7.560;2023-03-11T13:56:48;11.00;50.60
56729;DHT22;42612;52.232;7.560;2023-03-11T13:59:32;11.00;51.40
56729;DHT22;42612;52.232;7.560;2023-03-11T14:02:15;11.10;50.90
56729;DHT22;42612;52.232;7.560;2023-03-11T14:04:52;11.10;50.30
56729;DHT22;42612;52.232;7.560;2023-03-11T14:07:27;11.30;50.20
56729;DHT22;42612;52.232;7.560;2023-03-11T14:12:43;11.40;48.40
56729;DHT22;42612;52.232;7.560;2023-03-11T14:15:14;11.50;50.80
56729;DHT22;42612;52.232;7.560;2023-03-11T14:17:43;11.50;49.90
56729;DHT22;42612;52.232;7.560;2023-03-11T14:22:47;11.60;49.30
56729;DHT22;42612;52.232;7.560;2023-03-11T14:25:24;11.70;49.40
56729;DHT22;42612;52.232;7.560;2023-03-11T14:27:59;11.70;48.60
56729;DHT22;42612;52.232;7.560;2023-03-11T14:30:33;11.80;49.10
56729;DHT22;42612;52.232;7.560;2023-03-11T14:33:04;11.90;48.80
56729;DHT22;42612;52.232;7.560;2023-03-11T14:35:40;11.90;49.20
56729;DHT22;42612;52.232;7.560;2023-03-11T14:38:20;11.90;49.60
56729;DHT22;42612;52.232;7.560;2023-03-11T14:40:54;11.90;47.60
56729;DHT22;42612;52.232;7.560;2023-03-11T14:43:21;11.90;48.70
56729;DHT22;42612;52.232;7.560;2023-03-11T14:45:48;11.90;49.30
56729;DHT22;42612;52.232;7.560;2023-03-11T14:48:26;12.00;49.30
56729;DHT22;42612;52.232;7.560;2023-03-11T14:50:57;12.00;48.50
56729;DHT22;42612;52.232;7.560;2023-03-11T14:53:36;12.00;48.90
56729;DHT22;42612;52.232;7.560;2023-03-11T14:56:19;12.00;47.50
56729;DHT22;42612;52.232;7.560;2023-03-11T14:58:50;12.10;49.00
56729;DHT22;42612;52.232;7.560;2023-03-11T15:01:35;12.20;48.40
56729;DHT22;42612;52.232;7.560;2023-03-11T15:04:28;12.20;47.80
56729;DHT22;42612;52.232;7.560;2023-03-11T15:06:57;12.30;47.80
56729;DHT22;42612;52.232;7.560;2023-03-11T15:09:23;12.30;48.20
56729;DHT22;42612;52.232;7.560;2023-03-11T15:11:59;12.30;47.90
56729;DHT22;42612;52.232;7.560;2023-03-11T15:14:29;12.30;47.20
56729;DHT22;42612;52.232;7.560;2023-03-11T15:19:41;12.40;46.40
56729;DHT22;42612;52.232;7.560;2023-03-11T15:22:39;12.40;48.10
56729;DHT22;42612;52.232;7.560;2023-03-11T15:25:15;12.50;46.50
56729;DHT22;42612;52.232;7.560;2023-03-11T15:27:42;12.50;46.30
56729;DHT22;42612;52.232;7.560;2023-03-11T15:30:21;12.50;47.30
56729;DHT22;42612;52.232;7.560;2023-03-11T15:32:47;12.50;45.40
56729;DHT22;42612;52.232;7.560;2023-03-11T15:37:44;12.50;46.00
56729;DHT22;42612;52.232;7.560;2023-03-11T15:40:28;12.50;46.50
56729;DHT22;42612;52.232;7.560;2023-03-11T15:43:28;12.60;44.60
56729;DHT22;42612;52.232;7.560;2023-03-11T15:46:00;12.50;44.60
56729;DHT22;42612;52.232;7.560;2023-03-11T15:48:28;12.50;46.10
56729;DHT22;42612;52.232;7.560;2023-03-11T15:50:57;12.50;46.30
56729;DHT22;42612;52.232;7.560;2023-03-11T15:53:25;12.50;46.00
56729;DHT22;42612;52.232;7.560;2023-03-11T15:55:53;12.50;45.90
56729;DHT22;42612;52.232;7.560;2023-03-11T15:58:23;12.50;45.60
56729;DHT22;42612;52.232;7.560;2023-03-11T16:00:54;12.50;45.60
56729;DHT22;42612;52.232;7.560;2023-03-11T16:03:21;12.50;44.80
56729;DHT22;42612;52.232;7.560;2023-03-11T16:05:48;12.40;45.10
56729;DHT22;42612;52.232;7.560;2023-03-11T16:08:14;12.40;45.10
56729;DHT22;42612;52.232;7.560;2023-03-11T16:10:41;12.30;45.20
56729;DHT22;42612;52.232;7.560;2023-03-11T16:13:12;12.30;45.10
56729;DHT22;42612;52.232;7.560;2023-03-11T16:15:39;12.20;44.00
56729;DHT22;42612;52.232;7.560;2023-03-11T16:18:07;12.20;44.80
56729;DHT22;42612;52.232;7.560;2023-03-11T16:23:16;12.10;44.40
56729;DHT22;42612;52.232;7.560;2023-03-11T16:25:44;12.10;44.10
56729;DHT22;42612;52.232;7.560;2023-03-11T16:28:14;12.00;44.80
56729;DHT22;42612;52.232;7.560;2023-03-11T16:30:41;11.90;44.10
56729;DHT22;42612;52.232;7.560;2023-03-11T16:33:07;11.90;44.60
56729;DHT22;42612;52.232;7.560;2023-03-11T16:35:33;11.80;44.50
56729;DHT22;42612;52.232;7.560;2023-03-11T16:38:00;11.70;44.40
56729;DHT22;42612;52.232;7.560;2023-03-11T16:40:27;11.70;44.30
56729;DHT22;42612;52.232;7.560;2023-03-11T16:43:00;11.60;44.20
56729;DHT22;42612;52.232;7.560;2023-03-11T16:45:30;11.60;43.30
56729;DHT22;42612;52.232;7.560;2023-03-11T16:47:56;11.50;44.30
56729;DHT22;42612;52.232;7.560;2023-03-11T16:50:22;11.40;44.30
56729;DHT22;42612;52.232;7.560;2023-03-11T16:52:49;11.40;44.30
56729;DHT22;42612;52.232;7.560;2023-03-11T16:55:16;11.40;44.40
56729;DHT22;42612;52.232;7.560;2023-03-11T16:57:41;11.30;44.50
56729;DHT22;42612;52.232;7.560;2023-03-11T17:00:08;11.40;44.50
56729;DHT22;42612;52.232;7.560;2023-03-11T17:02:36;11.40;44.50
56729;DHT22;42612;52.232;7.560;2023-03-11T17:05:03;11.40;44.50
56729;DHT22;42612;52.232;7.560;2023-03-11T17:07:30;11.40;44.80
56729;DHT22;42612;52.232;7.560;2023-03-11T17:09:59;11.40;45.20
56729;DHT22;42612;52.232;7.560;2023-03-11T17:12:25;11.40;45.20
56729;DHT22;42612;52.232;7.560;2023-03-11T17:14:52;11.40;45.60
56729;DHT22;42612;52.232;7.560;2023-03-11T17:17:19;11.40;45.80
56729;DHT22;42612;52.232;7.560;2023-03-11T17:19:45;11.40;45.70
56729;DHT22;42612;52.232;7.560;2023-03-11T17:22:11;11.40;45.80
56729;DHT22;42612;52.232;7.560;2023-03-11T17:24:37;11.40;45.80
56729;DHT22;42612;52.232;7.560;2023-03-11T17:27:03;11.30;45.90
56729;DHT22;42612;52.232;7.560;2023-03-11T17:29:29;11.30;45.80
56729;DHT22;42612;52.232;7.560;2023-03-11T17:31:55;11.20;45.70
56729;DHT22;42612;52.232;7.560;2023-03-11T17:34:22;11.20;45.50
56729;DHT22;42612;52.232;7.560;2023-03-11T17:36:48;11.10;45.70
56729;DHT22;42612;52.232;7.560;2023-03-11T17:39:13;11.10;45.80
56729;DHT22;42612;52.232;7.560;2023-03-11T17:41:39;11.00;45.90
56729;DHT22;42612;52.232;7.560;2023-03-11T17:44:05;10.90;46.00